« 豪雨  成田国際空港 2017/10/29 sat | トップページ | 岐阜基地航空祭2017【飛行編】 岐阜飛行場 2017/11/19 sun »

2017/11/19

岐阜基地航空祭2017【B.I.編】 岐阜飛行場 2017/11/19 sun

4年振りにブルーインパルスの展示が行われるので、いろいろ所でブルー対策がされていました。

20171119_rjng_bi00

9時過ぎのブルー周辺

20171119_rjng_bi01

少し突撃して、ここで撮るのが精一杯

RJNG 190209Z 26006KT 230V310 9999 FEW025 SCT030 BKN050 08/01 Q1015 RMK 1CU025 3CU030 5SC050 A2998

20171119_rjng_bi02

めずらしく午前の飛行展示

20171119_rjng_bi03

この時間陽が射しているので、まるで蜃気楼状態です。

RJNG 190209Z 26006KT 230V310 9999 FEW025 SCT030 BKN050 08/01 Q1015 RMK 1CU025 3CU030 5SC050 A2998

20171119_rjng_bi04

東は空いてるけど、西から雨雲が接近していて、まず#5による天候調査から

20171119_rjng_bi05

ローアングルでテイクオフ

20171119_rjng_bi06

さあイクゾー 

20171119_rjng_bi07

飛行展示は可能との判断で、ランナップ

20171119_rjng_bi08

ダイヤモンドテイクオフ

20171119_rjng_bi09

ですが、航過飛行で実施

20171119_rjng_bi10

20171119_rjng_bi11

すかさず残っていた#6が後を追います

20171119_rjng_bi12

ジョインアップ 

20171119_rjng_bi13

#5もジョインして、デルタでのレーストラック展示

20171119_rjng_bi14

20171119_rjng_bi15

デルタ・ダーティー・ローパス

20171119_rjng_bi16

リーダーズ・ベネフィット・ローパス

20171119_rjng_bi17

20171119_rjng_bi18

ポイント・スター・ローパス

20171119_rjng_bi19

スワン・ローパス

20171119_rjng_bi20

20171119_rjng_bi21

グランドクロス・ローパス

20171119_rjng_bi22

エシュロンはキャンセルでピラミッド・ローパス

20171119_rjng_bi23

20171119_rjng_bi24

ツリー・ローパス

20171119_rjng_bi25

最後にフェニックス・ローパス

20171119_rjng_bi26

編隊解散して・・・

20171119_rjng_bi27

20171119_rjng_bi28

20171119_rjng_bi29

ローリング・コンバット・ピッチ

20171119_rjng_bi30

ポジションスモークから・・

20171119_rjng_bi31

20171119_rjng_bi33

コーク・スクリュー

20171119_rjng_bi32

ランディングライトも綺麗に・・

20171119_rjng_bi34t665745

#1 66-5745 T-4 11SQ

20171119_rjng_bi35t465731

#2 48-5731 T-4 11SQ

20171119_rjng_bi36

20171119_rjng_bi37

20171119_rjng_bi38

おてふりぃぃぃ

20171119_rjng_bi39

#2

20171119_rjng_bi40t265805

#3 26-5805 T-4 11SQ

20171119_rjng_bi41

20171119_rjng_bi42t065790

#4 06-5790 T-4 11SQ

20171119_rjng_bi43

20171119_rjng_bi44t465730

#5 46-5730 T-4 11SQ

 

20171119_rjng_bi45t465729

#6 46-5729 T-4 11SQ

20171119_rjng_bi46

20171119_rjng_bi47

20171119_rjng_bi48

雨にも降られながら、綺麗な編隊飛行を見ることができました。

|

« 豪雨  成田国際空港 2017/10/29 sat | トップページ | 岐阜基地航空祭2017【飛行編】 岐阜飛行場 2017/11/19 sun »

BI」カテゴリの記事

岐阜飛行場」カテゴリの記事

コメント

コメントを書く



(ウェブ上には掲載しません)


コメントは記事投稿者が公開するまで表示されません。



トラックバック


この記事へのトラックバック一覧です: 岐阜基地航空祭2017【B.I.編】 岐阜飛行場 2017/11/19 sun:

« 豪雨  成田国際空港 2017/10/29 sat | トップページ | 岐阜基地航空祭2017【飛行編】 岐阜飛行場 2017/11/19 sun »